Pineville, MO

5:30 PM CST on March 01, 2015 (GMT -0600)
Loch Lomond | Change Station
CLOSE
Current Station
Personal Weather Station
Location: Bella Vista, AR
Elevation: 1243 ft
Nearby Weather Stations

Elev 1243 ft 36.48 °N, 94.33 °W | Updated 2 minutes ago

Overcast
Overcast
31.9 °F
Feels Like 32 °F
N
0.0
Wind Variable Wind from NW
Gusts 1.0 mph

Today
High -- | Low -- °F
--% Chance of Precip.
Yesterday
High -- | Low -- °F
Precip. -- in
6:48 AM 6:11 PM
Waxing Gibbous, 88% visible
Pressure 30.35 in
Visibility 4.0 miles
Clouds Overcast 500 ft
Windchill 32 °F
Dew Point 29 °F
Humidity 90%
Rainfall 0.15 in
Snow Depth Not available.
UV 0 out of 12
Pollen .60 out of 12
Air Quality Not available.
Flu Activity Not available.
METAR KVBT 012315Z AUTO 01005KT 4SM OVC005 00/M02 A3035 RMK AO1

More Conditions Fewer Conditions

Pressure 30.35 in
Visibility 4.0 miles
Clouds Overcast 500 ft
Windchill 32 °F
Dew Point 29 °F
Humidity 90%
Rainfall 0.15 in
Snow Depth Not available.
UV 0 out of 12
Pollen .60 out of 12
Air Quality Not available.
Flu Activity Not available.
METAR KVBT 012315Z AUTO 01005KT 4SM OVC005 00/M02 A3035 RMK AO1

More Conditions Fewer Conditions

10-Day Weather Forecast

Almanac

Astronomy

Mar. 01, 2015 Rise Set
Actual Time
Civil Twilight
Nautical Twilight
Astronomical Twilight
Moon
Length of Visible Light
Length of Day
Tomorrow will be .
, % of the Moon is Illuminated

Today's Extremes

State Highs State Lows

Community

WunderPhotos

Upload Photos

1,801,610 photos uploaded!

WunderBlogs® & News

Nearby

Air Quality

  Air Quality AQ Index Pollutant
Not available.

Snow Depth

Station Depth Elevation

Earthquake Activity

City Distance Mag. Time & Date
Minimum magnitude displayed is 2.5.

Coastal Water Temperatures

Place Temperature

Nearby Weather Stations